Time;durP1;ratioP1;P1;durP2;ratioP2;P2;SDS_P1;SDS_P2;PMS_P1;PMS_P2;Temp;Humidity;BMP_temperature;BMP_pressure;BME280_temperature;BME280_humidity;BME280_pressure;Samples;Min_cycle;Max_cycle;Signal;HPM_P1;HPM_P2
2022/08/14 00:00:44;;;;;;;10.07;9.07;;;21.90;99.90;;;22.03;69.00;100944.97;5023670;28;20432;-72
2022/08/14 00:03:21;;;;;;;9.40;8.50;;;21.90;99.90;;;22.05;69.10;100948.28;5037380;28;20536;-73
2022/08/14 00:06:00;;;;;;;11.23;9.90;;;21.80;99.90;;;22.09;69.20;100946.63;5031153;28;20417;-72
2022/08/14 00:08:42;;;;;;;10.20;9.30;;;21.90;99.90;;;22.05;68.95;100936.44;5036650;28;20440;-72
2022/08/14 00:11:13;;;;;;;10.33;9.43;;;21.80;99.90;;;21.99;69.20;100941.13;5032436;28;20438;-72
2022/08/14 00:13:45;;;;;;;8.97;8.23;;;21.80;99.90;;;21.95;69.25;100941.94;5028395;28;20943;-73
2022/08/14 00:16:20;;;;;;;10.30;9.30;;;21.80;99.90;;;21.92;69.36;100936.97;5036875;28;20443;-72
2022/08/14 00:19:11;;;;;;;10.53;9.43;;;21.70;99.90;;;21.97;68.73;100942.50;5036298;28;20446;-72
2022/08/14 00:21:50;;;;;;;9.73;8.90;;;21.80;99.90;;;21.93;68.83;100938.63;5035321;28;20410;-73
2022/08/14 00:24:22;;;;;;;11.20;10.10;;;21.70;99.90;;;21.95;68.94;100937.25;5038289;28;20468;-73
2022/08/14 00:26:59;;;;;;;10.33;9.33;;;21.70;99.90;;;21.81;69.18;100935.31;5057588;28;20454;-73
2022/08/14 00:29:31;;;;;;;11.37;9.77;;;21.70;99.90;;;21.74;69.44;100943.84;5040318;28;20417;-71
2022/08/14 00:32:12;;;;;;;9.70;8.67;;;21.60;99.90;;;21.62;69.71;100938.63;5031909;28;20453;-72
2022/08/14 00:35:03;;;;;;;8.33;7.70;;;21.50;99.90;;;21.61;69.87;100945.22;5039910;28;20458;-72
2022/08/14 00:37:33;;;;;;;10.60;9.43;;;21.50;99.90;;;21.80;68.90;100942.75;5036680;28;20525;-72
2022/08/14 00:40:05;;;;;;;9.40;8.50;;;21.50;99.90;;;21.74;69.22;100937.50;5031218;28;20445;-73
2022/08/14 00:42:54;;;;;;;9.77;8.87;;;21.50;99.90;;;21.61;69.50;100933.38;5034213;28;20443;-73
2022/08/14 00:45:26;;;;;;;10.00;9.00;;;21.50;99.90;;;21.53;69.92;100934.75;5032887;28;20820;-73
2022/08/14 00:47:59;;;;;;;10.03;9.20;;;21.40;99.90;;;21.48;69.91;100931.16;5030026;28;20444;-72
2022/08/14 00:50:30;;;;;;;11.00;9.73;;;21.40;99.90;;;21.50;69.60;100939.97;5031234;28;20943;-71
2022/08/14 00:53:01;;;;;;;9.80;8.80;;;21.30;99.90;;;21.49;69.51;100935.56;5038465;28;20907;-72
2022/08/14 00:55:30;;;;;;;10.70;9.70;;;21.30;99.90;;;21.47;69.95;100932.25;5031969;28;20427;-73
2022/08/14 01:01:03;;;;;;;10.23;9.23;;;21.30;99.90;;;21.49;69.47;100919.88;5030854;28;20445;-73
2022/08/14 01:03:36;;;;;;;10.23;9.07;;;21.30;99.90;;;21.53;69.43;100917.41;5036238;28;20884;-73
2022/08/14 01:06:09;;;;;;;12.00;10.47;;;21.30;99.90;;;21.52;69.25;100921.25;5034967;28;20955;-73
2022/08/14 01:08:43;;;;;;;8.97;8.13;;;21.30;99.90;;;21.45;69.48;100910.50;5035584;28;20435;-72
2022/08/14 01:11:26;;;;;;;10.83;9.53;;;21.30;99.90;;;21.39;69.54;100910.78;5033164;28;20530;-73
2022/08/14 01:14:04;;;;;;;10.33;9.53;;;21.20;99.90;;;21.37;69.77;100908.28;5041454;28;20422;-73
2022/08/14 01:16:54;;;;;;;11.80;10.60;;;21.20;99.90;;;21.43;69.55;100914.63;5027229;28;20423;-71
2022/08/14 01:22:14;;;;;;;10.77;9.77;;;21.30;99.90;;;21.52;69.08;100922.06;5026760;28;20432;-73
2022/08/14 01:24:47;;;;;;;10.60;8.67;;;21.30;99.90;;;21.64;69.04;100916.28;5037634;28;21040;-74
2022/08/14 01:27:23;;;;;;;10.93;10.00;;;21.30;99.90;;;21.65;68.80;100910.50;5027070;28;20470;-73
2022/08/14 01:29:56;;;;;;;12.43;9.23;;;21.40;99.90;;;21.72;68.61;100920.44;5042029;28;20498;-73
2022/08/14 01:32:33;;;;;;;11.40;10.20;;;21.50;99.90;;;21.76;68.43;100918.78;5032743;28;20448;-73
2022/08/14 01:35:10;;;;;;;10.33;8.30;;;21.50;99.90;;;21.78;68.31;100920.16;5030716;28;20540;-73
2022/08/14 01:38:03;;;;;;;10.57;9.70;;;21.60;99.90;;;21.83;67.85;100916.59;5036913;28;20472;-73
2022/08/14 01:40:33;;;;;;;12.20;11.00;;;21.60;99.90;;;21.81;67.96;100919.59;5024273;28;20443;-73
2022/08/14 01:43:16;;;;;;;10.57;9.43;;;21.60;99.90;;;21.76;68.66;100908.59;5030452;28;20421;-73
2022/08/14 01:45:51;;;;;;;11.67;10.47;;;21.60;99.90;;;21.68;68.74;100915.50;5031619;28;20475;-74
2022/08/14 01:48:35;;;;;;;9.73;8.70;;;21.50;99.90;;;21.70;68.63;100915.19;5029526;28;20441;-73
2022/08/14 01:51:06;;;;;;;10.53;9.47;;;21.50;99.90;;;21.63;69.13;100922.91;5030678;28;20933;-73
2022/08/14 01:53:53;;;;;;;9.77;8.87;;;21.50;99.90;;;21.63;69.10;100922.91;5032132;28;20546;-72
2022/08/14 01:56:34;;;;;;;9.80;8.60;;;21.40;99.90;;;21.57;68.95;100915.75;5037599;28;20436;-73
2022/08/14 01:59:10;;;;;;;10.50;9.50;;;21.40;99.90;;;21.48;69.59;100917.41;5029246;28;20407;-72
2022/08/14 02:01:50;;;;;;;10.57;9.53;;;21.40;99.90;;;21.46;69.63;100917.66;5037853;28;20432;-73
2022/08/14 02:04:32;;;;;;;9.63;8.80;;;21.30;99.90;;;21.63;69.39;100918.25;5029543;28;20998;-72
2022/08/14 02:07:21;;;;;;;9.83;8.73;;;21.30;99.90;;;21.56;69.36;100917.66;5030017;28;20421;-73
2022/08/14 02:10:14;;;;;;;10.83;8.37;;;21.40;99.90;;;21.39;70.12;100910.78;5026988;28;20436;-72
2022/08/14 02:12:46;;;;;;;10.87;9.87;;;21.30;99.90;;;21.39;70.37;100911.63;5035055;28;20501;-74
2022/08/14 02:15:25;;;;;;;9.63;8.73;;;21.20;99.90;;;21.47;69.86;100911.06;5030549;28;20451;-72
2022/08/14 02:17:54;;;;;;;9.90;8.93;;;21.30;99.90;;;21.50;69.63;100917.94;5028802;28;21058;-72
2022/08/14 02:20:24;;;;;;;9.80;8.90;;;21.30;99.90;;;21.45;69.67;100912.41;5032604;28;20414;-72
2022/08/14 02:22:52;;;;;;;11.30;9.70;;;21.30;99.90;;;21.47;70.14;100905.56;5029902;28;20400;-74
2022/08/14 02:25:25;;;;;;;9.90;8.97;;;21.30;99.90;;;21.33;70.60;100906.34;5028603;28;20545;-73
2022/08/14 02:27:58;;;;;;;9.30;8.50;;;21.20;99.90;;;21.25;70.63;100905.78;5033695;28;20947;-74
2022/08/14 02:30:47;;;;;;;10.03;9.23;;;21.10;99.90;;;21.24;70.88;100903.31;5037459;28;20452;-73
2022/08/14 02:33:22;;;;;;;10.30;9.10;;;21.10;99.90;;;21.29;70.81;100900.59;5025890;28;20419;-72
2022/08/14 02:35:51;;;;;;;10.53;9.50;;;21.10;99.90;;;21.39;70.47;100899.78;5040965;28;20470;-74
2022/08/14 02:38:32;;;;;;;10.27;9.17;;;21.20;99.90;;;21.39;69.97;100894.25;5030556;28;20500;-73
2022/08/14 02:41:05;;;;;;;9.47;8.67;;;21.20;99.90;;;21.43;69.80;100890.69;5034466;28;20935;-73
2022/08/14 02:43:39;;;;;;;10.87;9.77;;;21.20;99.90;;;21.39;70.09;100886.00;5030267;28;20952;-73
2022/08/14 02:46:16;;;;;;;10.37;8.67;;;21.20;99.90;;;21.34;70.17;100886.81;5025074;28;20454;-73
2022/08/14 02:48:54;;;;;;;10.27;9.37;;;21.20;99.90;;;21.42;70.15;100883.53;5026836;28;20448;-72
2022/08/14 02:51:35;;;;;;;11.00;10.00;;;21.20;99.90;;;21.41;69.89;100881.03;5021598;28;20429;-72
2022/08/14 02:54:07;;;;;;;10.57;9.53;;;21.20;99.90;;;21.43;70.15;100881.59;5028729;28;20463;-73
2022/08/14 02:56:38;;;;;;;10.83;9.83;;;21.30;99.90;;;21.41;70.23;100875.53;5043063;28;20439;-73
2022/08/14 02:59:31;;;;;;;10.10;9.10;;;21.30;99.90;;;21.38;70.22;100863.16;5021744;28;20863;-73
2022/08/14 03:02:02;;;;;;;10.97;9.97;;;21.20;99.90;;;21.33;70.36;100874.16;5021258;28;20506;-71
2022/08/14 03:04:32;;;;;;;10.23;8.57;;;21.20;99.90;;;21.30;70.71;100869.19;5038736;28;20457;-72
2022/08/14 03:07:02;;;;;;;10.53;9.53;;;21.10;99.90;;;21.35;70.19;100862.88;5036529;28;20524;-73
2022/08/14 03:09:38;;;;;;;9.60;8.80;;;21.10;99.90;;;21.39;70.10;100869.50;5040179;28;20516;-72
2022/08/14 03:12:28;;;;;;;11.13;9.97;;;21.20;99.90;;;21.43;70.25;100863.16;5034192;28;20417;-72
2022/08/14 03:15:12;;;;;;;11.43;10.30;;;21.20;99.90;;;21.39;70.33;100864.81;5035918;28;20828;-72
2022/08/14 03:17:44;;;;;;;11.40;10.30;;;21.20;99.90;;;21.38;70.30;100865.91;5033614;28;20503;-72
2022/08/14 03:20:27;;;;;;;11.20;10.10;;;21.20;99.90;;;21.47;70.12;100869.75;5032329;28;20430;-72
2022/08/14 03:22:59;;;;;;;12.10;9.20;;;21.20;99.90;;;21.59;69.55;100872.25;5037037;28;20779;-72
2022/08/14 03:25:32;;;;;;;12.93;9.70;;;21.40;99.90;;;21.61;69.25;100865.34;5020074;28;20443;-72
2022/08/14 03:28:09;;;;;;;10.87;9.80;;;21.40;99.90;;;21.48;69.64;100859.59;5040849;28;20435;-73
2022/08/14 03:30:59;;;;;;;10.43;9.43;;;21.30;99.90;;;21.41;69.95;100859.00;5029454;28;20406;-72
2022/08/14 03:33:28;;;;;;;9.63;8.70;;;21.30;99.90;;;21.41;70.41;100864.53;5036129;28;20409;-72
2022/08/14 03:36:12;;;;;;;13.20;10.50;;;21.20;99.90;;;21.40;70.26;100869.19;5038021;28;20438;-72
2022/08/14 03:39:04;;;;;;;9.83;8.93;;;21.20;99.90;;;21.35;70.28;100860.13;5025328;28;20466;-71
2022/08/14 03:41:48;;;;;;;9.90;9.00;;;21.20;99.90;;;21.33;70.48;100865.06;5029973;28;20423;-73
2022/08/14 03:44:18;;;;;;;11.60;8.10;;;21.20;99.90;;;21.39;70.09;100866.75;5028562;28;20450;-73
2022/08/14 03:47:08;;;;;;;11.67;10.57;;;21.20;99.90;;;21.34;70.37;100875.00;5023847;28;20436;-73
2022/08/14 03:49:41;;;;;;;10.40;9.40;;;21.10;99.90;;;21.42;70.19;100866.19;5025163;28;20407;-73
2022/08/14 03:52:12;;;;;;;10.90;9.80;;;21.20;99.90;;;21.44;70.15;100864.00;5032403;28;20866;-72
2022/08/14 03:55:02;;;;;;;10.87;9.97;;;21.20;99.90;;;21.39;70.37;100867.56;5029765;28;20528;-73
2022/08/14 03:57:31;;;;;;;11.60;10.47;;;21.20;99.90;;;21.41;70.31;100867.28;5031759;28;20428;-73
2022/08/14 04:00:06;;;;;;;11.67;10.67;;;21.20;99.90;;;21.37;70.55;100868.94;5037341;28;20757;-73
2022/08/14 04:02:42;;;;;;;11.03;9.93;;;21.20;99.90;;;21.34;70.64;100858.47;5029715;28;20491;-72
2022/08/14 04:05:15;;;;;;;10.30;9.30;;;21.10;99.90;;;21.37;70.56;100858.75;5032298;28;20546;-73
2022/08/14 04:07:45;;;;;;;10.57;9.60;;;21.10;99.90;;;21.39;70.66;100852.97;5037493;28;20443;-73
2022/08/14 04:10:35;;;;;;;10.87;9.87;;;21.20;99.90;;;21.54;70.29;100852.97;5039367;28;20446;-72
2022/08/14 04:13:05;;;;;;;12.43;10.53;;;21.30;99.90;;;21.46;70.23;100846.06;5036606;28;20441;-73
2022/08/14 04:15:36;;;;;;;10.70;9.70;;;21.30;99.90;;;21.48;70.27;100848.56;5035172;28;20455;-72
2022/08/14 04:18:25;;;;;;;10.10;9.00;;;21.30;99.90;;;21.45;70.64;100849.94;5038256;28;20405;-72
2022/08/14 04:20:54;;;;;;;10.77;9.67;;;21.20;99.90;;;21.53;70.06;100846.66;5030791;28;20407;-73
2022/08/14 04:23:25;;;;;;;12.00;10.20;;;21.30;99.90;;;21.50;70.33;100838.09;5033927;28;20504;-73
2022/08/14 04:26:03;;;;;;;10.90;9.90;;;21.30;99.90;;;21.46;70.30;100829.56;5037137;28;20878;-73
2022/08/14 04:28:37;;;;;;;12.03;10.80;;;21.30;99.90;;;21.55;70.13;100844.41;5028010;28;20449;-73
2022/08/14 04:31:27;;;;;;;11.80;10.60;;;21.30;99.90;;;21.65;69.98;100849.94;5034970;28;20442;-72
2022/08/14 04:34:16;;;;;;;12.50;11.20;;;21.40;99.90;;;21.60;69.86;100846.34;5033017;28;20462;-72
2022/08/14 04:45:31;;;;;;;10.70;9.60;;;21.50;99.90;;;21.97;68.61;100844.16;5039375;28;20968;-72
2022/08/14 04:48:14;;;;;;;11.97;10.87;;;21.60;99.90;;;21.83;68.90;100851.31;5032508;28;20473;-72
2022/08/14 04:51:05;;;;;;;12.03;10.10;;;21.50;99.90;;;21.80;69.17;100848.25;5035075;28;20815;-72
2022/08/14 04:53:42;;;;;;;11.03;9.97;;;21.60;99.90;;;21.81;69.21;100852.66;5029308;28;20472;-72
2022/08/14 04:56:15;;;;;;;11.00;10.00;;;21.60;99.90;;;21.73;69.36;100851.31;5031878;28;20987;-74
2022/08/14 04:59:06;;;;;;;10.40;9.37;;;21.50;99.90;;;21.79;69.16;100849.34;5046366;28;20466;-72
2022/08/14 05:01:40;;;;;;;11.03;9.93;;;21.50;99.90;;;21.84;69.04;100849.34;5026134;28;20436;-73
2022/08/14 05:04:19;;;;;;;14.23;11.10;;;21.50;99.90;;;21.94;68.85;100841.94;5035443;22;20479;-72
2022/08/14 05:06:54;;;;;;;12.47;11.23;;;21.60;99.90;;;22.16;67.88;100838.84;5015837;28;20812;-72
2022/08/14 05:09:24;;;;;;;13.13;11.83;;;21.60;99.90;;;22.36;67.52;100843.47;5013158;28;20531;-72
2022/08/14 05:11:58;;;;;;;13.70;9.73;;;21.80;99.90;;;22.67;66.42;100833.94;5014940;28;20528;-71
2022/08/14 05:14:47;;;;;;;12.20;10.60;;;22.00;99.90;;;22.92;65.31;100836.59;5009145;28;20461;-72
2022/08/14 05:17:24;;;;;;;10.63;9.70;;;22.20;99.90;;;23.17;64.16;100832.84;4990744;28;20843;-72
2022/08/14 05:20:13;;;;;;;11.73;9.03;;;22.40;99.90;;;23.42;63.26;100840.13;4993070;28;20446;-71
2022/08/14 05:23:03;;;;;;;10.50;9.50;;;22.60;99.90;;;23.53;62.46;100825.13;4997236;28;20485;-71
2022/08/14 05:25:32;;;;;;;11.23;10.13;;;22.70;98.30;;;23.69;61.74;100829.41;4999213;28;20493;-73
2022/08/14 05:28:12;;;;;;;11.40;10.23;;;22.90;96.00;;;23.79;61.81;100832.06;5000423;28;20477;-72
2022/08/14 05:30:45;;;;;;;10.83;9.83;;;23.00;94.70;;;23.94;61.01;100833.03;5015628;28;20965;-71
2022/08/14 05:33:14;;;;;;;11.90;10.80;;;23.20;92.90;;;24.09;60.61;100827.31;5013636;28;20473;-71
2022/08/14 05:35:46;;;;;;;13.13;11.83;;;23.40;90.60;;;24.27;60.04;100831.28;5006337;28;20795;-72
2022/08/14 05:38:18;;;;;;;11.20;10.13;;;23.50;90.10;;;24.15;60.25;100821.47;5009216;28;20473;-71
2022/08/14 05:40:59;;;;;;;11.30;10.20;;;23.70;84.60;;;24.09;60.52;100816.28;4999527;28;20452;-73
2022/08/14 05:43:27;;;;;;;13.13;11.23;;;23.70;82.10;;;24.23;60.07;100812.53;5001562;28;20458;-72
2022/08/14 05:46:14;;;;;;;10.50;9.40;;;23.80;80.90;;;24.32;59.73;100809.09;4991061;28;20464;-72
2022/08/14 05:48:47;;;;;;;10.63;9.63;;;23.90;77.70;;;24.28;60.04;100814.41;4994821;28;20447;-72
2022/08/14 05:51:18;;;;;;;13.40;12.20;;;23.80;79.40;;;24.32;59.83;100821.00;5000159;28;20492;-72
2022/08/14 05:53:47;;;;;;;10.03;9.10;;;23.80;78.20;;;24.41;59.85;100818.41;5003056;28;20504;-73
2022/08/14 05:56:36;;;;;;;9.47;8.67;;;23.90;78.20;;;24.17;59.61;100812.88;5007987;28;20448;-72
2022/08/14 05:59:05;;;;;;;11.17;10.00;;;23.90;70.80;;;24.25;59.57;100821.34;4995998;28;20449;-71
2022/08/14 06:01:35;;;;;;;11.73;10.03;;;23.90;71.80;;;24.60;58.83;100825.59;4995540;28;20478;-71
2022/08/14 06:04:04;;;;;;;11.87;10.67;;;24.00;71.50;;;24.64;58.29;100818.34;4997687;28;20568;-71
2022/08/14 06:06:35;;;;;;;11.90;10.70;;;24.10;67.50;;;24.57;58.62;100825.38;4988920;28;20528;-71
2022/08/14 06:09:07;;;;;;;11.03;9.90;;;24.20;66.00;;;24.80;58.12;100818.97;4998243;28;20437;-71
2022/08/14 06:11:37;;;;;;;11.20;10.20;;;24.30;64.80;;;24.94;57.86;100822.66;4996865;28;20920;-71
2022/08/14 06:14:06;;;;;;;10.20;9.20;;;24.30;63.60;;;25.18;57.14;100821.75;4994176;28;20531;-72
2022/08/14 06:16:49;;;;;;;10.50;9.60;;;24.40;61.10;;;25.25;56.54;100805.59;4989502;28;20553;-72
2022/08/14 06:19:20;;;;;;;10.97;9.87;;;24.70;57.50;;;25.19;57.02;100802.06;5001780;28;20805;-72
2022/08/14 06:21:52;;;;;;;10.20;9.23;;;24.70;57.30;;;25.10;57.21;100801.13;4992779;28;20445;-72
2022/08/14 06:24:27;;;;;;;12.13;10.83;;;24.70;56.50;;;25.11;57.25;100800.00;4999296;28;20457;-72
2022/08/14 06:27:03;;;;;;;10.70;9.77;;;24.80;55.40;;;25.34;56.73;100803.78;4992083;28;20472;-72
2022/08/14 06:29:38;;;;;;;11.17;10.07;;;24.80;54.10;;;25.38;56.32;100804.81;4996216;28;21192;-72
2022/08/14 06:32:08;;;;;;;11.90;10.80;;;24.90;52.70;;;25.03;56.92;100792.34;4991647;28;20437;-72
2022/08/14 06:34:57;;;;;;;11.03;9.90;;;24.90;51.00;;;25.08;56.83;100790.34;4996915;28;20474;-72
2022/08/14 06:37:44;;;;;;;11.30;10.30;;;24.80;52.00;;;25.23;57.06;100786.50;4995148;28;20437;-72
2022/08/14 06:40:18;;;;;;;10.40;9.50;;;24.90;52.40;;;25.48;56.26;100791.59;4997020;28;20440;-72
2022/08/14 06:42:57;;;;;;;13.63;11.97;;;25.10;51.00;;;25.71;55.58;100794.56;4998055;28;20469;-72
2022/08/14 06:45:31;;;;;;;10.43;9.43;;;25.20;49.30;;;25.70;55.32;100790.16;4992379;28;20447;-72
2022/08/14 06:48:02;;;;;;;10.50;9.50;;;25.40;47.20;;;25.70;55.29;100788.22;4991967;28;20475;-72
2022/08/14 06:50:34;;;;;;;10.47;9.47;;;25.40;46.00;;;25.75;54.91;100787.28;4996474;28;20449;-73
2022/08/14 06:53:04;;;;;;;11.47;10.33;;;25.40;44.40;;;25.88;54.66;100789.25;5001855;28;20749;-72
2022/08/14 06:55:33;;;;;;;12.13;11.10;;;25.50;43.90;;;25.86;54.68;100797.03;5006561;28;20441;-71
2022/08/14 06:58:12;;;;;;;12.53;11.43;;;25.50;42.30;;;25.75;54.66;100793.66;4999845;28;20442;-72
2022/08/14 07:06:30;;;;;;;12.73;10.40;;;25.50;41.70;;;25.86;54.61;100797.88;4995800;28;20445;-71
2022/08/14 07:09:17;;;;;;;13.13;11.03;;;25.50;41.30;;;26.05;54.28;100785.84;4988848;28;20524;-72
2022/08/14 07:11:51;;;;;;;11.53;9.87;;;25.50;41.40;;;26.39;53.25;100798.22;4994931;28;20452;-72
2022/08/14 07:14:20;;;;;;;11.10;10.00;;;25.80;39.10;;;26.58;52.41;100788.91;4994146;28;20461;-72
2022/08/14 07:16:49;;;;;;;10.80;9.73;;;26.00;36.50;;;26.63;52.51;100777.72;5000633;28;20441;-73
2022/08/14 07:19:18;;;;;;;12.00;9.67;;;26.10;35.70;;;26.44;52.64;100777.03;4993947;28;20457;-71
2022/08/14 07:21:49;;;;;;;11.60;9.50;;;26.20;35.20;;;26.58;52.40;100766.72;4998519;28;20445;-73
2022/08/14 07:24:19;;;;;;;10.30;9.40;;;26.20;33.90;;;26.42;51.99;100770.97;4996971;28;20841;-72
2022/08/14 07:26:53;;;;;;;10.10;9.20;;;26.20;32.10;;;26.36;52.48;100764.72;4993364;28;20939;-73
2022/08/14 07:29:22;;;;;;;11.10;10.10;;;26.00;32.60;;;26.52;52.48;100760.50;4997008;28;20504;-71
2022/08/14 07:31:56;;;;;;;10.53;9.60;;;26.10;33.10;;;26.60;52.67;100761.69;4993540;28;20477;-71
2022/08/14 07:34:25;;;;;;;10.77;9.87;;;26.10;33.30;;;26.58;52.54;100762.00;4989911;28;20489;-72
2022/08/14 07:37:09;;;;;;;9.37;8.50;;;26.30;33.00;;;26.97;52.03;100768.91;5001682;28;20444;-71
2022/08/14 07:39:40;;;;;;;11.30;10.20;;;26.40;32.10;;;27.05;51.71;100765.38;4999580;28;20527;-71
2022/08/14 07:42:11;;;;;;;10.57;9.47;;;26.50;31.00;;;27.25;50.24;100760.13;4995188;28;20446;-72
2022/08/14 07:44:40;;;;;;;10.60;9.60;;;26.60;29.60;;;27.40;49.82;100752.56;4998581;28;20458;-71
2022/08/14 07:47:18;;;;;;;8.67;7.97;;;26.80;28.00;;;27.35;49.29;100755.47;4989338;28;20460;-71
2022/08/14 07:50:01;;;;;;;10.60;9.80;;;26.80;26.40;;;27.63;48.82;100762.53;4994047;28;20458;-72
2022/08/14 07:52:30;;;;;;;9.67;8.87;;;27.00;25.50;;;27.48;48.72;100762.91;4993806;28;20522;-72
2022/08/14 07:55:02;;;;;;;10.03;8.97;;;27.00;24.20;;;27.66;47.80;100759.09;4996783;28;20437;-71
2022/08/14 07:57:31;;;;;;;10.10;9.10;;;27.20;22.40;;;27.62;48.35;100752.53;5001124;28;20793;-71
2022/08/14 08:00:00;;;;;;;9.67;8.53;;;27.30;23.20;;;27.80;48.41;100742.31;5000535;28;20812;-71
2022/08/14 08:02:42;;;;;;;9.63;8.83;;;27.30;22.90;;;27.85;47.89;100744.94;4995949;28;20462;-71
2022/08/14 08:05:15;;;;;;;11.00;9.93;;;27.40;22.10;;;28.09;47.65;100746.19;4995359;28;20462;-71
2022/08/14 08:07:46;;;;;;;10.33;9.23;;;27.50;22.00;;;28.14;47.45;100749.97;4993467;28;20479;-72
2022/08/14 08:10:31;;;;;;;10.27;9.37;;;27.70;21.10;;;28.07;47.99;100748.47;5002489;28;20454;-72
2022/08/14 08:13:21;;;;;;;10.50;9.40;;;27.80;20.60;;;28.10;47.45;100758.13;4996768;28;20991;-71
2022/08/14 08:15:56;;;;;;;10.83;9.83;;;27.80;20.10;;;27.77;48.44;100749.34;5002432;28;20449;-71
2022/08/14 08:18:27;;;;;;;9.83;8.83;;;27.60;20.10;;;27.92;48.25;100742.53;5000222;28;20513;-72
2022/08/14 08:20:58;;;;;;;11.30;10.30;;;27.60;20.20;;;28.12;48.09;100743.94;5003952;28;20496;-71
2022/08/14 08:23:32;;;;;;;9.33;8.60;;;27.70;20.50;;;28.14;47.99;100741.63;5002128;28;20774;-72
2022/08/14 08:26:19;;;;;;;11.30;8.60;;;27.80;19.90;;;27.97;48.50;100740.44;4992139;28;20437;-71
2022/08/14 08:28:57;;;;;;;10.23;9.23;;;27.70;19.90;;;28.34;47.64;100741.84;4997066;28;20469;-71
2022/08/14 08:31:26;;;;;;;9.33;8.53;;;27.90;19.70;;;28.69;45.96;100742.72;5005405;28;20495;-71
2022/08/14 08:34:06;;;;;;;9.20;8.50;;;28.10;18.10;;;28.83;45.38;100740.63;4997274;28;20465;-71
2022/08/14 08:36:42;;;;;;;8.57;7.77;;;28.30;16.60;;;28.85;45.38;100729.94;4998052;28;21016;-71
2022/08/14 08:39:14;;;;;;;10.17;9.13;;;28.20;16.30;;;29.02;45.46;100733.88;5000576;28;20437;-71
2022/08/14 08:41:52;;;;;;;9.00;8.10;;;28.40;15.80;;;29.16;44.50;100734.53;5000802;28;20445;-70
2022/08/14 08:44:22;;;;;;;9.37;8.20;;;28.60;15.10;;;29.11;44.48;100731.91;4995082;28;20483;-71
2022/08/14 08:47:04;;;;;;;8.83;8.13;;;28.60;14.20;;;29.17;44.66;100727.81;4998474;28;21317;-71
2022/08/14 08:49:43;;;;;;;9.40;8.43;;;28.70;13.80;;;29.16;43.73;100715.84;5002117;28;20572;-71
2022/08/14 08:52:28;;;;;;;8.80;8.03;;;28.80;12.30;;;29.19;43.67;100708.81;4984626;28;20514;-71
2022/08/14 08:55:14;;;;;;;8.20;7.50;;;28.90;11.60;;;29.12;43.73;100709.28;5003577;28;21024;-71
2022/08/14 08:57:44;;;;;;;7.73;7.13;;;28.80;11.20;;;29.19;43.15;100706.00;5020241;28;20445;-71
2022/08/14 09:00:17;;;;;;;8.63;7.90;;;28.80;11.00;;;29.29;43.10;100708.41;4993920;28;20452;-71
2022/08/14 09:02:56;;;;;;;7.80;7.10;;;28.90;10.80;;;29.25;43.46;100704.66;4994610;28;20523;-71
2022/08/14 09:05:27;;;;;;;8.20;7.60;;;29.00;10.30;;;29.33;42.67;100712.22;4987882;28;20462;-71
2022/08/14 09:08:14;;;;;;;8.17;7.37;;;28.90;10.00;;;29.25;43.32;100704.66;5005766;28;20528;-72
2022/08/14 09:11:02;;;;;;;10.10;9.20;;;28.90;10.20;;;29.40;42.95;100704.16;4996315;28;20504;-71
2022/08/14 09:13:54;;;;;;;8.07;7.37;;;29.00;10.00;;;29.72;42.53;100695.19;4983044;28;20512;-71
2022/08/14 09:16:25;;;;;;;9.43;7.53;;;29.20;9.90;;;29.66;41.72;100693.75;4997174;28;20854;-72
2022/08/14 09:18:54;;;;;;;8.37;7.53;;;29.30;8.40;;;29.69;41.47;100681.91;4993357;28;20552;-71
2022/08/14 09:21:23;;;;;;;8.77;8.07;;;29.30;7.50;;;29.52;42.11;100687.56;4997472;28;20852;-71
2022/08/14 09:24:00;;;;;;;10.40;9.47;;;29.20;7.90;;;29.55;41.98;100689.69;4996080;28;20816;-71
2022/08/14 09:26:50;;;;;;;9.77;8.97;;;29.10;7.80;;;29.76;41.68;100682.22;4997333;28;20464;-73
2022/08/14 09:29:22;;;;;;;11.13;10.20;;;29.30;7.70;;;29.74;41.97;100678.94;4989464;28;20462;-77
2022/08/14 09:32:06;;;;;;;9.27;8.47;;;29.20;7.70;;;29.96;41.58;100675.09;4989437;28;20881;-73
2022/08/14 09:35:12;;;;;;;8.93;8.13;;;29.50;7.10;;;29.87;41.49;100676.25;4991702;28;20469;-71
2022/08/14 09:37:58;;;;;;;7.47;6.87;;;29.50;6.60;;;30.10;41.41;100672.03;4990591;28;20902;-71
2022/08/14 09:40:47;;;;;;;8.60;7.90;;;29.60;6.80;;;30.28;41.23;100670.75;5000022;28;20533;-71
2022/08/14 09:43:30;;;;;;;8.40;7.70;;;29.80;6.30;;;30.63;40.30;100672.16;4990301;28;20901;-72
2022/08/14 09:46:07;;;;;;;8.87;8.17;;;30.00;5.60;;;30.49;39.79;100671.63;4991841;28;20540;-72
2022/08/14 09:48:38;;;;;;;8.70;8.00;;;30.00;4.60;;;30.62;39.75;100670.50;4992181;28;20568;-71
2022/08/14 09:51:23;;;;;;;8.17;7.47;;;30.10;4.30;;;30.58;39.83;100663.16;4993900;28;20438;-72
2022/08/14 09:54:05;;;;;;;8.33;7.57;;;30.10;4.70;;;31.02;39.17;100665.25;5010610;28;20561;-72
2022/08/14 09:56:51;;;;;;;12.40;7.33;;;30.40;4.00;;;31.15;38.72;100660.47;4997515;28;20476;-71
2022/08/14 09:59:28;;;;;;;10.23;8.40;;;30.60;2.90;;;31.02;39.01;100656.03;4996367;28;20434;-72
2022/08/14 10:02:06;;;;;;;8.10;7.40;;;30.50;2.80;;;30.94;38.69;100651.31;4999708;28;20449;-72
2022/08/14 10:04:37;;;;;;;7.57;7.07;;;30.50;2.30;;;30.87;39.01;100645.47;4993151;28;20957;-72
2022/08/14 10:07:13;;;;;;;7.73;6.97;;;30.40;2.30;;;30.88;39.50;100638.72;4992750;28;20506;-72
2022/08/14 10:09:48;;;;;;;7.87;7.17;;;30.40;3.00;;;30.87;38.70;100642.69;4998089;28;20881;-72
2022/08/14 10:12:48;;;;;;;7.57;6.77;;;30.40;1.90;;;30.95;38.60;100638.97;4995325;28;20446;-72
2022/08/14 10:15:26;;;;;;;8.20;7.13;;;30.40;1.40;;;31.07;38.13;100639.06;4991352;28;20435;-72
2022/08/14 10:18:10;;;;;;;7.73;7.00;;;30.50;1.00;;;30.88;37.89;100633.16;5012969;28;20912;-72
2022/08/14 10:21:00;;;;;;;8.20;6.93;;;30.50;1.00;;;31.22;37.40;100629.19;5000304;28;20437;-72
2022/08/14 10:23:44;;;;;;;9.00;6.20;;;30.70;1.00;;;31.43;37.12;100616.72;4983225;28;20550;-71
2022/08/14 10:26:18;;;;;;;7.07;6.47;;;30.90;1.00;;;31.50;36.78;100622.56;4994615;28;20529;-72
2022/08/14 10:29:09;;;;;;;7.23;6.10;;;31.00;1.00;;;31.28;36.69;100620.19;4989529;28;20527;-71
2022/08/14 10:31:58;;;;;;;7.03;6.30;;;31.00;1.00;;;30.96;37.19;100610.69;4998389;28;20439;-71
2022/08/14 10:34:34;;;;;;;6.97;6.37;;;30.80;1.00;;;30.97;37.23;100611.50;4994745;28;20511;-71
2022/08/14 10:37:09;;;;;;;6.83;5.30;;;30.70;1.00;;;31.05;37.11;100605.84;4989457;28;20500;-72
2022/08/14 10:39:45;;;;;;;6.10;5.60;;;30.70;1.00;;;31.32;36.23;100598.75;4994366;28;20438;-72
2022/08/14 10:42:36;;;;;;;6.60;6.10;;;30.80;1.00;;;31.51;36.44;100601.00;4988435;28;20489;-71
2022/08/14 10:45:20;;;;;;;6.93;6.33;;;31.10;1.00;;;31.42;35.96;100592.72;5001938;28;20440;-71
2022/08/14 10:47:51;;;;;;;6.50;6.00;;;31.00;1.00;;;31.78;35.70;100582.72;4997573;28;20436;-72
2022/08/14 10:50:50;;;;;;;4.90;4.50;;;31.20;1.00;;;31.32;35.01;100578.41;5021810;22;20521;-73
2022/08/14 10:53:34;;;;;;;7.70;5.87;;;31.20;1.00;;;31.39;34.91;100576.66;5047164;28;20517;-72
2022/08/14 10:56:12;;;;;;;5.87;5.37;;;31.10;1.00;;;31.14;35.45;100569.41;5049356;28;20796;-70
2022/08/14 10:59:03;;;;;;;6.23;5.70;;;30.80;1.00;;;31.67;34.71;100571.19;5050458;28;20462;-73
2022/08/14 11:01:33;;;;;;;7.73;6.13;;;31.00;1.00;;;31.61;34.98;100566.19;5053229;28;20447;-72
2022/08/14 11:04:27;;;;;;;5.70;5.20;;;31.20;1.00;;;31.48;35.38;100562.53;5052242;28;20470;-71
2022/08/14 11:07:00;;;;;;;6.10;5.60;;;31.20;1.00;;;31.29;35.39;100563.13;5047422;28;20956;-73
2022/08/14 11:09:29;;;;;;;5.47;5.03;;;30.90;1.00;;;31.26;35.41;100566.63;5049732;28;20467;-72